Sinclair, Minnesota
Current Conditions -  °F | °C
As of 11:15 AM on Saturday 20 Dec 2014 (Local Time) from KFSE Reporting Station
Haze Haze  
Wind Chill: 18°   Ceiling: 400
Heat Index: 28°   Visibility: 1.7mi
Dew Point: 27°   Wind: 12mph
Humidity: 93%   Direction: 190°S
Pressure: 30.01"   Gusts: NA
Location:  47.6306°N, 95.3701°W
Report Text: KFSE 201715Z AUTO 19010KT 1 3/4SM BR OVC004 M02/M03 A3001 RMK AO2
Loading
Personal Weather Stations






























Interactive Weather Map New forecast layout! Learn more

10-Day Weather Forecast

Advertisements
Track Severe Weather on mobile